createdAt,value
2022-07-29T00:00:46.900Z,1.00
2022-07-29T00:01:46.890Z,0.80
2022-07-29T00:02:46.921Z,0.70
2022-07-29T00:03:47.043Z,0.90
2022-07-29T00:04:46.841Z,1.10
2022-07-29T00:05:46.828Z,0.90
2022-07-29T00:06:46.835Z,1.20
2022-07-29T00:07:46.801Z,0.80
2022-07-29T00:08:46.782Z,1.10
2022-07-29T00:09:51.309Z,1.10
2022-07-29T00:10:46.761Z,1.10
2022-07-29T00:11:46.756Z,1.10
2022-07-29T00:12:46.728Z,1.00
2022-07-29T00:13:50.884Z,1.00
2022-07-29T00:14:46.702Z,1.00
2022-07-29T00:15:46.693Z,0.90
2022-07-29T00:16:46.777Z,1.20
2022-07-29T00:17:46.670Z,1.10
2022-07-29T00:18:46.653Z,1.00
2022-07-29T00:19:46.642Z,1.00
2022-07-29T00:20:46.625Z,1.10
2022-07-29T00:21:46.619Z,1.10
2022-07-29T00:22:46.599Z,1.00
2022-07-29T00:23:46.582Z,1.10
2022-07-29T00:24:46.569Z,1.00
2022-07-29T00:25:46.561Z,1.10
2022-07-29T00:26:46.548Z,1.00
2022-07-29T00:27:46.536Z,1.10
2022-07-29T00:28:46.514Z,1.00
2022-07-29T00:29:46.512Z,0.90
2022-07-29T00:30:46.486Z,1.00
2022-07-29T00:31:46.540Z,1.00
2022-07-29T00:32:46.460Z,0.80
2022-07-29T00:33:46.455Z,0.70
2022-07-29T00:34:46.435Z,1.10
2022-07-29T00:35:46.422Z,0.90
2022-07-29T00:36:46.414Z,0.80
2022-07-29T00:37:46.401Z,0.80
2022-07-29T00:38:46.378Z,1.00
2022-07-29T00:39:46.376Z,0.80
2022-07-29T00:40:46.358Z,0.80
2022-07-29T00:41:46.352Z,0.90
2022-07-29T00:42:46.343Z,0.90
2022-07-29T00:43:46.319Z,0.80
2022-07-29T00:44:46.318Z,0.80
2022-07-29T00:45:46.304Z,0.80
2022-07-29T00:46:46.353Z,0.80
2022-07-29T00:47:46.261Z,0.80
2022-07-29T00:48:46.374Z,0.70
2022-07-29T00:49:46.238Z,0.60
2022-07-29T00:50:46.215Z,0.90
2022-07-29T00:51:46.227Z,1.00
2022-07-29T00:52:46.188Z,0.90
2022-07-29T00:53:46.182Z,0.60
2022-07-29T00:54:46.161Z,0.80
2022-07-29T00:55:46.158Z,0.70
2022-07-29T00:56:46.161Z,0.60
2022-07-29T00:57:46.127Z,0.80
2022-07-29T00:58:46.106Z,0.70
2022-07-29T00:59:46.095Z,0.70
2022-07-29T01:00:46.272Z,0.80
2022-07-29T01:01:46.133Z,0.80
2022-07-29T01:02:46.055Z,0.70
2022-07-29T01:03:46.046Z,0.60
2022-07-29T01:04:46.026Z,0.70
2022-07-29T01:05:49.786Z,0.80
2022-07-29T01:06:46.015Z,0.70
2022-07-29T01:07:46.026Z,0.90
2022-07-29T01:08:45.975Z,0.60
2022-07-29T01:09:47.273Z,0.50
2022-07-29T01:10:45.964Z,0.50
2022-07-29T01:11:45.954Z,0.50
2022-07-29T01:12:45.920Z,0.80
2022-07-29T01:13:45.908Z,0.70
2022-07-29T01:14:45.898Z,0.60
2022-07-29T01:15:49.334Z,0.60
2022-07-29T01:16:45.969Z,0.90
2022-07-29T01:17:53.169Z,0.40
2022-07-29T01:18:45.855Z,0.50
2022-07-29T01:19:45.828Z,0.50
2022-07-29T01:20:45.813Z,0.60
2022-07-29T01:21:45.813Z,0.50
2022-07-29T01:22:45.804Z,0.50
2022-07-29T01:23:45.780Z,0.50
2022-07-29T01:24:45.761Z,0.60
2022-07-29T01:25:45.748Z,0.70
2022-07-29T01:26:45.739Z,0.60
2022-07-29T01:27:45.751Z,0.50
2022-07-29T01:28:45.719Z,0.50
2022-07-29T01:29:45.696Z,0.60
2022-07-29T01:30:45.685Z,0.80
2022-07-29T01:31:58.599Z,0.50
2022-07-29T01:32:45.670Z,0.40
2022-07-29T01:33:45.643Z,0.50
2022-07-29T01:34:45.634Z,0.50
2022-07-29T01:35:45.618Z,0.30
2022-07-29T01:36:45.599Z,0.40
2022-07-29T01:37:45.599Z,0.40
2022-07-29T01:38:45.573Z,0.40
2022-07-29T01:39:45.566Z,0.50
2022-07-29T01:40:45.547Z,0.60
2022-07-29T01:41:45.539Z,0.40
2022-07-29T01:42:45.534Z,0.50
2022-07-29T01:43:45.517Z,0.50
2022-07-29T01:44:45.502Z,0.60
2022-07-29T01:45:45.483Z,0.50
2022-07-29T01:46:45.556Z,0.40
2022-07-29T01:47:45.470Z,0.50
2022-07-29T01:48:45.452Z,0.60
2022-07-29T01:49:45.429Z,0.50
2022-07-29T01:50:45.412Z,0.60
2022-07-29T01:51:45.411Z,0.50
2022-07-29T01:52:45.399Z,0.50
2022-07-29T01:53:45.378Z,0.50
2022-07-29T01:54:46.766Z,0.40
2022-07-29T01:55:45.349Z,0.40
2022-07-29T01:56:45.342Z,0.50
2022-07-29T01:57:45.350Z,0.50
2022-07-29T01:58:45.307Z,0.50
2022-07-29T01:59:45.300Z,0.50
2022-07-29T02:00:45.290Z,0.40
2022-07-29T02:01:45.337Z,0.40
2022-07-29T02:02:45.272Z,0.60
2022-07-29T02:03:45.249Z,0.60
2022-07-29T02:04:45.280Z,0.50
2022-07-29T02:05:45.222Z,0.40
2022-07-29T02:06:45.839Z,0.50
2022-07-29T02:07:45.196Z,0.50
2022-07-29T02:08:45.186Z,0.60
2022-07-29T02:09:45.166Z,0.60
2022-07-29T02:10:45.155Z,0.70
2022-07-29T02:11:45.142Z,0.50
2022-07-29T02:12:46.626Z,0.70
2022-07-29T02:13:45.139Z,0.40
2022-07-29T02:14:45.098Z,0.50
2022-07-29T02:15:45.126Z,0.50
2022-07-29T02:16:45.073Z,0.60
2022-07-29T02:17:45.062Z,0.60
2022-07-29T02:18:45.050Z,0.60
2022-07-29T02:19:45.037Z,0.50
2022-07-29T02:20:45.022Z,0.70
2022-07-29T02:21:45.005Z,0.50
2022-07-29T02:22:45.003Z,0.50
2022-07-29T02:23:51.101Z,0.70
2022-07-29T02:24:44.972Z,0.60
2022-07-29T02:25:44.959Z,0.60
2022-07-29T02:26:44.946Z,0.50
2022-07-29T02:27:44.935Z,0.70
2022-07-29T02:28:44.922Z,0.80
2022-07-29T02:29:44.898Z,0.60
2022-07-29T02:30:44.925Z,0.70
2022-07-29T02:31:44.936Z,0.70
2022-07-29T02:32:44.865Z,0.60
2022-07-29T02:33:44.855Z,0.60
2022-07-29T02:34:44.828Z,0.50
2022-07-29T02:35:44.817Z,0.70
2022-07-29T02:36:44.802Z,0.60
2022-07-29T02:37:44.795Z,0.60
2022-07-29T02:38:44.792Z,0.60
2022-07-29T02:39:44.761Z,0.80
2022-07-29T02:40:44.743Z,0.70
2022-07-29T02:41:44.735Z,0.60
2022-07-29T02:42:44.724Z,0.60
2022-07-29T02:43:44.712Z,0.60
2022-07-29T02:44:44.685Z,0.60
2022-07-29T02:45:44.682Z,0.60
2022-07-29T02:46:44.703Z,0.70
2022-07-29T02:47:44.649Z,0.60
2022-07-29T02:48:44.699Z,0.50
2022-07-29T02:49:44.629Z,0.60
2022-07-29T02:50:44.621Z,0.70
2022-07-29T02:51:45.083Z,0.80
2022-07-29T02:52:44.587Z,0.60
2022-07-29T02:53:44.584Z,0.70
2022-07-29T02:54:44.554Z,0.60
2022-07-29T02:55:44.549Z,0.70
2022-07-29T02:56:44.526Z,0.70
2022-07-29T02:57:54.742Z,0.50
2022-07-29T02:58:44.509Z,0.60
2022-07-29T02:59:44.505Z,0.60
2022-07-29T03:00:44.478Z,0.70
2022-07-29T03:02:52.939Z,1.20
2022-07-29T03:03:53.940Z,0.40
2022-07-29T03:04:54.048Z,0.60
2022-07-29T03:05:53.907Z,0.80
2022-07-29T03:06:53.904Z,0.60
2022-07-29T03:07:53.883Z,0.70
2022-07-29T03:08:53.867Z,0.60
2022-07-29T03:09:53.872Z,0.60
2022-07-29T03:10:53.844Z,0.80
2022-07-29T03:11:53.834Z,0.70
2022-07-29T03:12:53.817Z,0.60
2022-07-29T03:13:53.809Z,0.70
2022-07-29T03:14:53.809Z,0.50
2022-07-29T03:15:53.859Z,0.60
2022-07-29T03:16:53.764Z,0.60
2022-07-29T03:17:53.764Z,0.70
2022-07-29T03:18:53.744Z,0.70
2022-07-29T03:19:53.753Z,0.70
2022-07-29T03:20:53.720Z,0.70
2022-07-29T03:21:53.706Z,0.60
2022-07-29T03:22:53.695Z,0.50
2022-07-29T03:23:53.706Z,0.80
2022-07-29T03:24:53.681Z,0.70
2022-07-29T03:25:53.677Z,0.50
2022-07-29T03:26:53.650Z,0.60
2022-07-29T03:27:53.648Z,0.70
2022-07-29T03:28:53.661Z,0.70
2022-07-29T03:29:53.614Z,0.50
2022-07-29T03:30:53.659Z,0.90
2022-07-29T03:31:53.588Z,0.60
2022-07-29T03:32:53.572Z,0.70
2022-07-29T03:33:53.560Z,0.60
2022-07-29T03:34:53.559Z,0.60
2022-07-29T03:35:53.542Z,0.70
2022-07-29T03:36:53.519Z,0.70
2022-07-29T03:37:53.517Z,0.70
2022-07-29T03:38:53.489Z,0.70
2022-07-29T03:39:53.507Z,0.80
2022-07-29T03:40:53.508Z,0.60
2022-07-29T03:41:53.480Z,0.70
2022-07-29T03:42:53.434Z,0.60
2022-07-29T03:43:53.428Z,0.70
2022-07-29T03:44:53.417Z,0.80
2022-07-29T03:45:53.436Z,0.70
2022-07-29T03:46:53.382Z,0.70
2022-07-29T03:47:58.417Z,0.70
2022-07-29T03:48:53.378Z,0.80
2022-07-29T03:49:53.356Z,0.70
2022-07-29T03:50:53.331Z,0.90
2022-07-29T03:51:53.318Z,0.70
2022-07-29T03:52:53.301Z,1.00
2022-07-29T03:53:53.318Z,0.90
2022-07-29T03:54:53.287Z,1.00
2022-07-29T03:55:53.265Z,0.80
2022-07-29T03:56:53.254Z,1.00
2022-07-29T03:57:53.243Z,0.70
2022-07-29T03:58:53.224Z,0.80
2022-07-29T03:59:53.226Z,0.80
2022-07-29T04:00:53.229Z,0.80
2022-07-29T04:01:53.247Z,0.90
2022-07-29T04:02:53.175Z,0.80
2022-07-29T04:03:53.250Z,1.00
2022-07-29T04:04:53.189Z,0.80
2022-07-29T04:05:53.156Z,1.10
2022-07-29T04:06:53.121Z,0.90
2022-07-29T04:07:53.096Z,1.10
2022-07-29T04:08:53.148Z,0.80
2022-07-29T04:09:53.074Z,1.10
2022-07-29T04:10:53.081Z,0.80
2022-07-29T04:12:01.705Z,1.00
2022-07-29T04:12:53.047Z,0.80
2022-07-29T04:13:53.018Z,1.00
2022-07-29T04:14:53.006Z,0.80
2022-07-29T04:15:53.034Z,0.90
2022-07-29T04:16:52.989Z,0.80
2022-07-29T04:17:53.023Z,1.00
2022-07-29T04:18:52.981Z,1.00
2022-07-29T04:19:52.939Z,1.10
2022-07-29T04:20:52.957Z,0.80
2022-07-29T04:21:52.933Z,0.80
2022-07-29T04:22:52.902Z,1.00
2022-07-29T04:23:53.883Z,0.70
2022-07-29T04:24:52.889Z,0.70
2022-07-29T04:25:52.879Z,0.90
2022-07-29T04:26:52.858Z,1.00
2022-07-29T04:27:52.842Z,1.10
2022-07-29T04:28:52.821Z,0.80
2022-07-29T04:29:56.252Z,0.90
2022-07-29T04:30:52.889Z,1.00
2022-07-29T04:31:52.788Z,0.80
2022-07-29T04:32:52.778Z,0.90
2022-07-29T04:33:52.751Z,1.00
2022-07-29T04:34:52.908Z,0.90
2022-07-29T04:35:55.634Z,1.00
2022-07-29T04:36:52.761Z,0.90
2022-07-29T04:37:52.704Z,0.90
2022-07-29T04:38:52.788Z,0.90
2022-07-29T04:39:52.672Z,0.80
2022-07-29T04:40:52.676Z,1.10
2022-07-29T04:41:56.366Z,0.90
2022-07-29T04:42:52.647Z,0.70
2022-07-29T04:43:52.624Z,1.10
2022-07-29T04:44:52.625Z,1.00
2022-07-29T04:45:52.654Z,0.80
2022-07-29T04:46:52.585Z,0.70
2022-07-29T04:47:52.575Z,0.80
2022-07-29T04:48:52.637Z,0.80
2022-07-29T04:49:52.552Z,0.90
2022-07-29T04:50:52.594Z,0.90
2022-07-29T04:51:52.516Z,1.10
2022-07-29T04:52:52.531Z,0.90
2022-07-29T04:53:52.481Z,0.90
2022-07-29T04:54:52.511Z,1.00
2022-07-29T04:55:52.472Z,0.90
2022-07-29T04:56:52.547Z,1.00
2022-07-29T04:57:52.432Z,1.00
2022-07-29T04:58:52.422Z,1.00
2022-07-29T04:59:52.423Z,1.20
2022-07-29T05:00:52.417Z,1.40
2022-07-29T05:01:52.542Z,1.10
2022-07-29T05:02:52.419Z,1.40
2022-07-29T05:03:55.926Z,1.20
2022-07-29T05:04:52.354Z,1.20
2022-07-29T05:05:52.362Z,0.90
2022-07-29T05:06:52.431Z,1.10
2022-07-29T05:07:52.318Z,1.10
2022-07-29T05:08:52.289Z,1.00
2022-07-29T05:09:52.315Z,1.10
2022-07-29T05:10:52.278Z,0.90
2022-07-29T05:11:52.283Z,1.20
2022-07-29T05:12:52.268Z,1.10
2022-07-29T05:13:52.272Z,1.20
2022-07-29T05:14:52.270Z,2.00
2022-07-29T05:15:52.287Z,1.70
2022-07-29T05:16:52.213Z,1.80
2022-07-29T05:17:52.179Z,2.10
2022-07-29T05:18:52.206Z,2.40
2022-07-29T05:19:52.150Z,1.70
2022-07-29T05:20:52.138Z,1.60
2022-07-29T05:21:53.148Z,1.70
2022-07-29T05:22:52.129Z,1.60
2022-07-29T05:23:52.093Z,1.10
2022-07-29T05:24:52.090Z,1.10
2022-07-29T05:25:52.073Z,1.00
2022-07-29T05:26:52.107Z,1.10
2022-07-29T05:27:53.178Z,1.10
2022-07-29T05:28:52.048Z,1.40
2022-07-29T05:29:52.024Z,1.00
2022-07-29T05:30:52.087Z,0.90
2022-07-29T05:31:52.566Z,1.20
2022-07-29T05:32:51.991Z,1.80
2022-07-29T05:33:51.976Z,1.90
2022-07-29T05:34:52.045Z,1.20
2022-07-29T05:35:52.162Z,1.40
2022-07-29T05:36:51.943Z,1.20
2022-07-29T05:37:55.702Z,1.20
2022-07-29T05:39:02.899Z,1.20
2022-07-29T05:39:56.986Z,1.30
2022-07-29T05:40:52.967Z,1.20
2022-07-29T05:41:52.204Z,1.20
2022-07-29T05:42:51.866Z,1.00
2022-07-29T05:43:51.863Z,0.90
2022-07-29T05:44:51.840Z,1.20
2022-07-29T05:45:51.866Z,1.20
2022-07-29T05:46:52.645Z,1.00
2022-07-29T05:47:51.953Z,1.10
2022-07-29T05:48:51.853Z,1.10
2022-07-29T05:49:52.490Z,1.20
2022-07-29T05:50:51.755Z,1.10
2022-07-29T05:51:51.750Z,1.00
2022-07-29T05:52:51.725Z,1.30
2022-07-29T05:53:51.708Z,1.30
2022-07-29T05:54:51.855Z,1.10
2022-07-29T05:55:51.733Z,1.10
2022-07-29T05:56:53.192Z,1.20
2022-07-29T05:57:51.687Z,1.20
2022-07-29T05:58:51.651Z,1.60
2022-07-29T05:59:51.670Z,1.20
2022-07-29T06:00:51.631Z,1.20
2022-07-29T06:01:51.728Z,1.20
2022-07-29T06:02:51.604Z,1.20
2022-07-29T06:03:51.593Z,1.10
2022-07-29T06:04:51.681Z,1.00
2022-07-29T06:05:51.574Z,1.30
2022-07-29T06:06:51.561Z,1.20
2022-07-29T06:07:51.653Z,1.30
2022-07-29T06:08:51.581Z,1.50
2022-07-29T06:09:51.505Z,1.50
2022-07-29T06:10:51.493Z,2.50
2022-07-29T06:11:51.518Z,2.30
2022-07-29T06:12:51.492Z,1.40
2022-07-29T06:13:51.466Z,1.40
2022-07-29T06:14:54.190Z,1.70
2022-07-29T06:15:51.457Z,2.20
2022-07-29T06:16:51.580Z,1.80
2022-07-29T06:17:59.750Z,1.10
2022-07-29T06:18:51.411Z,1.10
2022-07-29T06:19:51.397Z,1.00
2022-07-29T06:20:51.373Z,1.80
2022-07-29T06:21:51.468Z,1.20
2022-07-29T06:22:51.341Z,1.40
2022-07-29T06:23:51.328Z,3.00
2022-07-29T06:24:51.356Z,2.90
2022-07-29T06:25:51.336Z,2.80
2022-07-29T06:26:51.301Z,2.60
2022-07-29T06:27:51.284Z,1.80
2022-07-29T06:28:51.282Z,1.80
2022-07-29T06:29:51.310Z,1.50
2022-07-29T06:30:51.277Z,1.40
2022-07-29T06:31:51.259Z,1.00
2022-07-29T06:32:51.222Z,1.20
2022-07-29T06:33:51.223Z,1.10
2022-07-29T06:34:51.190Z,1.30
2022-07-29T06:35:53.690Z,1.30
2022-07-29T06:36:51.275Z,1.30
2022-07-29T06:37:51.166Z,1.00
2022-07-29T06:38:51.439Z,1.40
2022-07-29T06:39:51.142Z,1.30
2022-07-29T06:40:51.115Z,1.30
2022-07-29T06:41:51.149Z,1.20
2022-07-29T06:42:51.086Z,1.10
2022-07-29T06:43:54.648Z,1.50
2022-07-29T06:44:51.083Z,1.70
2022-07-29T06:45:51.079Z,1.20
2022-07-29T06:46:51.032Z,1.20
2022-07-29T06:47:51.044Z,1.30
2022-07-29T06:48:51.267Z,1.40
2022-07-29T06:49:50.996Z,1.00
2022-07-29T06:50:51.015Z,1.20
2022-07-29T06:51:51.010Z,1.30
2022-07-29T06:52:50.967Z,1.10
2022-07-29T06:54:00.024Z,1.10
2022-07-29T06:54:50.958Z,1.60
2022-07-29T06:55:50.922Z,1.00
2022-07-29T06:56:50.913Z,1.20
2022-07-29T06:57:50.923Z,1.10
2022-07-29T06:58:50.913Z,0.90
2022-07-29T06:59:50.870Z,1.30
2022-07-29T07:00:50.886Z,0.90
2022-07-29T07:01:50.882Z,0.90
2022-07-29T07:02:50.950Z,1.00
2022-07-29T07:03:50.816Z,0.90
2022-07-29T07:04:50.846Z,1.30
2022-07-29T07:05:50.787Z,1.10
2022-07-29T07:06:50.793Z,1.20
2022-07-29T07:07:50.786Z,1.00
2022-07-29T07:08:50.766Z,1.10
2022-07-29T07:09:50.746Z,0.90
2022-07-29T07:10:50.741Z,1.10
2022-07-29T07:11:50.734Z,1.20
2022-07-29T07:12:50.716Z,1.00
2022-07-29T07:13:50.689Z,0.80
2022-07-29T07:14:50.694Z,0.80
2022-07-29T07:15:50.673Z,1.00
2022-07-29T07:16:50.772Z,0.90
2022-07-29T07:17:50.657Z,1.20
2022-07-29T07:18:50.630Z,0.90
2022-07-29T07:19:50.628Z,0.90
2022-07-29T07:20:50.642Z,0.80
2022-07-29T07:21:50.613Z,1.00
2022-07-29T07:22:50.578Z,0.90
2022-07-29T07:23:50.565Z,1.00
2022-07-29T07:24:50.562Z,0.80
2022-07-29T07:25:50.556Z,0.70
2022-07-29T07:26:50.558Z,0.60
2022-07-29T07:27:50.509Z,0.80
2022-07-29T07:28:50.502Z,0.90
2022-07-29T07:29:50.488Z,0.90
2022-07-29T07:30:50.478Z,0.70
2022-07-29T07:31:50.500Z,0.90
2022-07-29T07:32:50.489Z,0.80
2022-07-29T07:33:50.426Z,1.00
2022-07-29T07:34:50.448Z,1.00
2022-07-29T07:35:50.463Z,0.80
2022-07-29T07:36:50.395Z,0.80
2022-07-29T07:37:50.401Z,1.00
2022-07-29T07:38:50.370Z,1.00
2022-07-29T07:39:50.368Z,1.00
2022-07-29T07:40:50.364Z,0.80
2022-07-29T07:41:50.320Z,0.80
2022-07-29T07:42:50.344Z,0.80
2022-07-29T07:43:50.298Z,0.90
2022-07-29T07:45:12.215Z,0.70
2022-07-29T07:45:50.508Z,0.80
2022-07-29T07:46:50.281Z,0.90
2022-07-29T07:47:50.341Z,0.80
2022-07-29T07:48:50.270Z,1.00
2022-07-29T07:49:50.218Z,1.10
2022-07-29T07:50:50.234Z,1.00
2022-07-29T07:51:50.369Z,1.00
2022-07-29T07:52:50.207Z,1.40
2022-07-29T07:53:50.200Z,1.00
2022-07-29T07:54:50.160Z,1.40
2022-07-29T07:56:52.996Z,1.10
2022-07-29T07:57:50.231Z,1.00
2022-07-29T07:58:50.143Z,0.90
2022-07-29T07:59:50.122Z,0.80
2022-07-29T08:00:50.146Z,1.00
2022-07-29T08:01:50.114Z,1.60
2022-07-29T08:02:50.125Z,1.30
2022-07-29T08:03:50.074Z,1.20
2022-07-29T08:04:50.039Z,0.90
2022-07-29T08:05:50.018Z,1.10
2022-07-29T08:06:50.012Z,1.30
2022-07-29T08:07:50.051Z,1.00
2022-07-29T08:08:49.988Z,0.90
2022-07-29T08:09:49.986Z,0.80
2022-07-29T08:10:49.962Z,0.80
2022-07-29T08:11:51.659Z,0.90
2022-07-29T08:12:49.951Z,1.20
2022-07-29T08:13:49.933Z,1.00
2022-07-29T08:14:49.925Z,0.90
2022-07-29T08:15:49.888Z,1.20
2022-07-29T08:16:49.971Z,0.70
2022-07-29T08:17:50.007Z,1.10
2022-07-29T08:18:49.983Z,1.00
2022-07-29T08:19:49.859Z,0.90
2022-07-29T08:20:49.863Z,1.10
2022-07-29T08:21:50.150Z,1.10
2022-07-29T08:22:49.854Z,0.90
2022-07-29T08:23:57.584Z,1.00
2022-07-29T08:24:49.813Z,1.00
2022-07-29T08:25:50.312Z,1.10
2022-07-29T08:26:49.759Z,1.10
2022-07-29T08:27:49.805Z,0.80
2022-07-29T08:28:49.754Z,0.90
2022-07-29T08:29:49.801Z,0.90
2022-07-29T08:30:49.699Z,0.90
2022-07-29T08:31:49.764Z,0.90
2022-07-29T08:32:54.438Z,0.80
2022-07-29T08:33:49.688Z,0.90
2022-07-29T08:34:49.650Z,1.30
2022-07-29T08:35:49.666Z,0.90
2022-07-29T08:36:51.427Z,1.00
2022-07-29T08:37:49.771Z,1.30
2022-07-29T08:38:49.628Z,1.30
2022-07-29T08:39:49.581Z,1.10
2022-07-29T08:40:49.583Z,1.10
2022-07-29T08:41:57.223Z,0.90
2022-07-29T08:42:49.562Z,1.50
2022-07-29T08:43:49.553Z,1.20
2022-07-29T08:44:50.347Z,1.40
2022-07-29T08:45:49.551Z,1.20
2022-07-29T08:46:49.543Z,1.20
2022-07-29T08:47:49.489Z,0.90
2022-07-29T08:48:49.571Z,1.30
2022-07-29T08:49:49.477Z,1.10
2022-07-29T08:50:49.486Z,1.30
2022-07-29T08:51:49.759Z,1.20
2022-07-29T08:52:50.446Z,1.30
2022-07-29T08:53:49.420Z,1.20
2022-07-29T08:54:49.420Z,1.10
2022-07-29T08:55:49.403Z,1.30
2022-07-29T08:56:49.455Z,1.10
2022-07-29T08:57:51.992Z,1.30
2022-07-29T08:58:51.668Z,1.40
2022-07-29T08:59:49.353Z,1.30
2022-07-29T09:00:49.375Z,1.20
2022-07-29T09:01:49.357Z,1.10
2022-07-29T09:02:55.313Z,1.30
2022-07-29T09:03:49.351Z,1.10
2022-07-29T09:04:49.280Z,1.20
2022-07-29T09:05:49.257Z,1.20
2022-07-29T09:06:49.242Z,1.10
2022-07-29T09:07:49.256Z,1.20
2022-07-29T09:08:49.246Z,1.40
2022-07-29T09:09:49.226Z,1.30
2022-07-29T09:10:49.192Z,1.10
2022-07-29T09:11:49.205Z,1.30
2022-07-29T09:12:49.182Z,1.40
2022-07-29T09:13:49.171Z,1.30
2022-07-29T09:14:49.150Z,1.20
2022-07-29T09:15:49.152Z,1.20
2022-07-29T09:17:01.093Z,1.00
2022-07-29T09:17:49.111Z,1.00
2022-07-29T09:18:49.113Z,2.10
2022-07-29T09:19:49.100Z,1.90
2022-07-29T09:20:49.072Z,1.30
2022-07-29T09:21:49.054Z,1.10
2022-07-29T09:22:49.051Z,1.60
2022-07-29T09:23:49.044Z,1.40
2022-07-29T09:24:49.022Z,1.30
2022-07-29T09:25:49.007Z,1.40
2022-07-29T09:26:48.994Z,1.20
2022-07-29T09:27:48.989Z,1.40
2022-07-29T09:28:48.970Z,1.30
2022-07-29T09:29:48.956Z,1.50
2022-07-29T09:30:48.938Z,1.30
2022-07-29T09:31:49.027Z,1.30
2022-07-29T09:32:48.913Z,1.40
2022-07-29T09:33:48.902Z,1.50
2022-07-29T09:34:48.927Z,1.40
2022-07-29T09:35:56.589Z,1.00
2022-07-29T09:36:48.870Z,1.20
2022-07-29T09:37:48.846Z,1.40
2022-07-29T09:38:48.829Z,1.30
2022-07-29T09:39:48.842Z,1.20
2022-07-29T09:40:48.815Z,1.50
2022-07-29T09:41:48.795Z,1.50
2022-07-29T09:42:48.778Z,1.30
2022-07-29T09:43:48.794Z,1.30
2022-07-29T09:44:48.759Z,1.40
2022-07-29T09:45:48.742Z,1.40
2022-07-29T09:46:48.764Z,1.30
2022-07-29T09:47:48.729Z,1.40
2022-07-29T09:48:48.800Z,1.40
2022-07-29T09:49:48.712Z,1.00
2022-07-29T09:50:48.667Z,1.30
2022-07-29T09:51:48.670Z,1.40
2022-07-29T09:52:48.656Z,1.40
2022-07-29T09:53:48.641Z,1.30
2022-07-29T09:54:48.628Z,1.40
2022-07-29T09:55:48.625Z,1.60
2022-07-29T09:56:48.605Z,1.30
2022-07-29T09:57:48.596Z,1.50
2022-07-29T09:58:48.575Z,1.40
2022-07-29T09:59:50.180Z,1.40
2022-07-29T10:00:48.641Z,1.40
2022-07-29T10:01:48.577Z,1.50
2022-07-29T10:02:48.535Z,1.70
2022-07-29T10:03:48.576Z,1.50
2022-07-29T10:04:48.494Z,1.40
2022-07-29T10:05:48.500Z,1.60
2022-07-29T10:06:48.484Z,1.40
2022-07-29T10:07:53.507Z,1.40
2022-07-29T10:08:48.450Z,1.30
2022-07-29T10:09:48.431Z,1.30
2022-07-29T10:10:48.449Z,1.40
2022-07-29T10:11:56.213Z,2.00
2022-07-29T10:12:48.403Z,1.60
2022-07-29T10:13:48.382Z,1.40
2022-07-29T10:14:48.357Z,1.60
2022-07-29T10:15:48.405Z,1.50
2022-07-29T10:16:48.344Z,1.50
2022-07-29T10:17:48.360Z,1.30
2022-07-29T10:18:48.324Z,1.40
2022-07-29T10:19:48.299Z,1.60
2022-07-29T10:20:48.298Z,1.60
2022-07-29T10:21:48.269Z,1.30
2022-07-29T10:22:53.343Z,1.20
2022-07-29T10:23:48.255Z,1.40
2022-07-29T10:24:48.235Z,1.50
2022-07-29T10:25:48.241Z,1.80
2022-07-29T10:26:48.214Z,1.30
2022-07-29T10:27:48.218Z,1.40
2022-07-29T10:28:48.179Z,1.40
2022-07-29T10:29:48.181Z,1.50
2022-07-29T10:30:48.172Z,1.30
2022-07-29T10:31:48.170Z,1.60
2022-07-29T10:32:51.226Z,1.60
2022-07-29T10:33:48.136Z,1.40
2022-07-29T10:34:48.102Z,1.60
2022-07-29T10:35:48.093Z,1.30
2022-07-29T10:36:48.087Z,1.50
2022-07-29T10:37:48.063Z,1.30
2022-07-29T10:38:48.257Z,1.30
2022-07-29T10:39:49.710Z,1.30
2022-07-29T10:40:48.053Z,1.50
2022-07-29T10:41:48.022Z,1.20
2022-07-29T10:42:47.993Z,1.40
2022-07-29T10:43:47.986Z,1.30
2022-07-29T10:44:48.027Z,1.40
2022-07-29T10:45:47.959Z,1.50
2022-07-29T10:46:48.057Z,1.40
2022-07-29T10:47:47.952Z,1.30
2022-07-29T10:48:47.990Z,1.50
2022-07-29T10:49:47.922Z,1.40
2022-07-29T10:50:47.919Z,1.50
2022-07-29T10:51:47.898Z,1.40
2022-07-29T10:52:47.874Z,1.40
2022-07-29T10:53:47.870Z,1.50
2022-07-29T10:54:47.844Z,1.60
2022-07-29T10:55:47.877Z,1.30
2022-07-29T10:56:47.818Z,1.20
2022-07-29T10:57:54.030Z,1.50
2022-07-29T10:58:52.647Z,1.70
2022-07-29T10:59:47.785Z,1.50
2022-07-29T11:00:47.855Z,1.50
2022-07-29T11:01:50.260Z,1.30
2022-07-29T11:02:49.393Z,1.50
2022-07-29T11:03:49.220Z,1.50
2022-07-29T11:04:48.621Z,1.50
2022-07-29T11:05:47.708Z,1.50
2022-07-29T11:06:47.690Z,1.30
2022-07-29T11:07:47.679Z,1.40
2022-07-29T11:08:47.677Z,1.40
2022-07-29T11:09:47.677Z,1.40
2022-07-29T11:10:47.641Z,1.50
2022-07-29T11:11:51.328Z,1.40
2022-07-29T11:12:47.633Z,1.60
2022-07-29T11:13:49.079Z,1.50
2022-07-29T11:14:47.585Z,1.50
2022-07-29T11:15:47.577Z,1.20
2022-07-29T11:16:47.577Z,1.50
2022-07-29T11:17:53.030Z,1.50
2022-07-29T11:18:47.558Z,1.20
2022-07-29T11:19:52.237Z,1.20
2022-07-29T11:20:47.866Z,1.30
2022-07-29T11:21:55.321Z,1.50
2022-07-29T11:22:47.486Z,1.70
2022-07-29T11:23:47.480Z,1.50
2022-07-29T11:24:50.297Z,1.40
2022-07-29T11:25:52.216Z,1.30
2022-07-29T11:26:47.437Z,1.60
2022-07-29T11:27:47.421Z,1.40
2022-07-29T11:28:47.410Z,1.30
2022-07-29T11:29:47.395Z,1.30
2022-07-29T11:30:47.381Z,1.50
2022-07-29T11:31:47.365Z,1.40
2022-07-29T11:32:48.655Z,1.30
2022-07-29T11:33:56.361Z,1.30
2022-07-29T11:34:47.337Z,1.40
2022-07-29T11:35:47.332Z,1.60
2022-07-29T11:36:47.306Z,1.20
2022-07-29T11:37:52.184Z,1.70
2022-07-29T11:38:47.294Z,1.40
2022-07-29T11:39:47.270Z,1.30
2022-07-29T11:40:47.251Z,1.40
2022-07-29T11:41:47.238Z,1.30
2022-07-29T11:42:47.228Z,1.30
2022-07-29T11:43:47.223Z,1.20
2022-07-29T11:44:47.238Z,1.30
2022-07-29T11:45:47.197Z,1.50
2022-07-29T11:46:47.170Z,1.30
2022-07-29T11:47:47.249Z,1.30
2022-07-29T11:48:47.166Z,1.30
2022-07-29T11:49:47.159Z,1.60
2022-07-29T11:50:48.295Z,1.40
2022-07-29T12:07:11.138Z,1.30
2022-07-29T12:07:20.406Z,1.40
2022-07-29T12:08:19.597Z,1.60
2022-07-29T12:09:19.583Z,1.60
2022-07-29T12:10:29.798Z,1.20
2022-07-29T12:11:20.848Z,1.20
2022-07-29T12:12:19.535Z,1.70
2022-07-29T12:13:19.541Z,1.50
2022-07-29T12:14:19.520Z,1.30
2022-07-29T12:15:20.340Z,1.30
2022-07-29T12:16:29.437Z,1.30
2022-07-29T12:17:19.478Z,1.20
2022-07-29T12:18:19.464Z,1.30
2022-07-29T12:19:19.452Z,1.50
2022-07-29T12:20:20.373Z,1.20
2022-07-29T12:21:19.419Z,1.50
2022-07-29T12:22:19.473Z,1.30
2022-07-29T12:23:19.416Z,1.20
2022-07-29T12:24:19.396Z,1.70
2022-07-29T12:25:34.868Z,1.50
2022-07-29T12:26:25.499Z,1.40
2022-07-29T12:27:19.372Z,1.30
2022-07-29T12:28:26.433Z,1.10
2022-07-29T12:29:20.016Z,1.30
2022-07-29T12:30:19.309Z,1.40
2022-07-29T12:31:43.662Z,1.30
2022-07-29T12:32:19.975Z,1.50
2022-07-29T12:33:19.270Z,1.70
2022-07-29T12:34:19.257Z,1.50
2022-07-29T12:35:19.257Z,2.70
2022-07-29T12:36:19.232Z,1.80
2022-07-29T12:37:19.221Z,1.50
2022-07-29T12:38:19.232Z,1.40
2022-07-29T12:39:19.204Z,1.40
2022-07-29T12:40:19.179Z,1.60
2022-07-29T12:41:19.165Z,1.70
2022-07-29T12:42:19.162Z,1.30
2022-07-29T12:43:19.142Z,1.50
2022-07-29T12:44:19.133Z,1.60
2022-07-29T12:45:19.125Z,1.80
2022-07-29T12:46:19.107Z,1.40
2022-07-29T12:47:19.153Z,1.20
2022-07-29T12:48:19.074Z,1.40
2022-07-29T12:49:19.095Z,1.40
2022-07-29T12:50:23.282Z,1.40
2022-07-29T12:51:19.047Z,1.70
2022-07-29T12:52:19.027Z,1.50
2022-07-29T12:53:19.024Z,1.30
2022-07-29T12:54:18.997Z,1.70
2022-07-29T12:55:19.005Z,1.70
2022-07-29T12:57:20.266Z,1.40
2022-07-29T12:58:18.948Z,1.20
2022-07-29T12:59:18.941Z,1.30
2022-07-29T13:00:18.925Z,1.40
2022-07-29T13:01:18.974Z,1.20
2022-07-29T13:02:18.970Z,1.50
2022-07-29T13:03:18.883Z,1.10
2022-07-29T13:04:18.871Z,1.80
2022-07-29T13:05:18.874Z,1.30
2022-07-29T13:06:18.849Z,1.20
2022-07-29T13:07:18.836Z,1.20
2022-07-29T13:08:20.248Z,1.30
2022-07-29T13:09:18.817Z,1.40
2022-07-29T13:10:18.792Z,1.50
2022-07-29T13:11:18.794Z,1.50
2022-07-29T13:12:18.770Z,1.40
2022-07-29T13:13:18.758Z,1.20
2022-07-29T13:14:18.754Z,1.60
2022-07-29T13:15:18.743Z,1.60
2022-07-29T13:16:18.810Z,1.50
2022-07-29T13:17:18.707Z,1.60
2022-07-29T13:18:19.475Z,1.50
2022-07-29T13:19:18.683Z,1.40
2022-07-29T13:20:18.703Z,1.30
2022-07-29T13:21:18.948Z,1.40
2022-07-29T13:22:18.644Z,1.50
2022-07-29T13:23:18.694Z,1.40
2022-07-29T13:24:19.979Z,1.80
2022-07-29T13:25:18.603Z,1.60
2022-07-29T13:26:18.591Z,1.50
2022-07-29T13:27:18.590Z,1.60
2022-07-29T13:28:18.578Z,1.40
2022-07-29T13:29:18.559Z,1.50
2022-07-29T13:30:18.557Z,1.70
2022-07-29T13:31:18.588Z,2.30
2022-07-29T13:32:18.530Z,1.60
2022-07-29T13:33:18.501Z,1.60
2022-07-29T13:34:18.492Z,1.60
2022-07-29T13:35:18.482Z,1.60
2022-07-29T13:36:18.469Z,1.60